sensor_id;sensor_type;location;lat;lon;timestamp;P1;durP1;ratioP1;P2;durP2;ratioP2
44116;SDS011;29781;49.480;8.512;2023-07-16T00:01:57;4.55;;;3.95;;
44116;SDS011;29781;49.480;8.512;2023-07-16T00:04:23;7.18;;;4.07;;
44116;SDS011;29781;49.480;8.512;2023-07-16T00:06:48;5.38;;;3.45;;
44116;SDS011;29781;49.480;8.512;2023-07-16T00:09:14;3.75;;;3.13;;
44116;SDS011;29781;49.480;8.512;2023-07-16T00:11:40;5.05;;;3.40;;
44116;SDS011;29781;49.480;8.512;2023-07-16T00:14:06;3.92;;;2.95;;
44116;SDS011;29781;49.480;8.512;2023-07-16T00:16:31;2.30;;;2.10;;
44116;SDS011;29781;49.480;8.512;2023-07-16T00:18:57;3.40;;;2.25;;
44116;SDS011;29781;49.480;8.512;2023-07-16T00:21:23;3.08;;;2.22;;
44116;SDS011;29781;49.480;8.512;2023-07-16T00:23:49;4.07;;;2.20;;
44116;SDS011;29781;49.480;8.512;2023-07-16T00:26:14;3.20;;;2.15;;
44116;SDS011;29781;49.480;8.512;2023-07-16T00:28:40;3.40;;;2.08;;
44116;SDS011;29781;49.480;8.512;2023-07-16T00:31:05;3.42;;;2.42;;
44116;SDS011;29781;49.480;8.512;2023-07-16T00:33:31;4.65;;;2.10;;
44116;SDS011;29781;49.480;8.512;2023-07-16T00:35:56;5.22;;;2.38;;
44116;SDS011;29781;49.480;8.512;2023-07-16T00:38:22;3.42;;;2.00;;
44116;SDS011;29781;49.480;8.512;2023-07-16T00:40:47;7.15;;;2.35;;
44116;SDS011;29781;49.480;8.512;2023-07-16T00:43:13;2.10;;;2.00;;
44116;SDS011;29781;49.480;8.512;2023-07-16T00:45:39;2.50;;;2.30;;
44116;SDS011;29781;49.480;8.512;2023-07-16T00:48:06;3.33;;;2.22;;
44116;SDS011;29781;49.480;8.512;2023-07-16T00:50:32;6.00;;;2.47;;
44116;SDS011;29781;49.480;8.512;2023-07-16T00:53:00;2.55;;;2.00;;
44116;SDS011;29781;49.480;8.512;2023-07-16T00:55:26;2.45;;;2.10;;
44116;SDS011;29781;49.480;8.512;2023-07-16T00:57:54;2.95;;;2.13;;
44116;SDS011;29781;49.480;8.512;2023-07-16T01:00:22;2.72;;;2.28;;
44116;SDS011;29781;49.480;8.512;2023-07-16T01:02:48;3.10;;;2.60;;
44116;SDS011;29781;49.480;8.512;2023-07-16T01:05:13;4.55;;;2.70;;
44116;SDS011;29781;49.480;8.512;2023-07-16T01:07:39;4.80;;;3.00;;
44116;SDS011;29781;49.480;8.512;2023-07-16T01:10:17;6.47;;;2.83;;
44116;SDS011;29781;49.480;8.512;2023-07-16T01:12:43;4.03;;;2.80;;
44116;SDS011;29781;49.480;8.512;2023-07-16T01:15:10;2.97;;;2.65;;
44116;SDS011;29781;49.480;8.512;2023-07-16T01:17:36;3.17;;;2.50;;
44116;SDS011;29781;49.480;8.512;2023-07-16T01:20:01;5.03;;;2.60;;
44116;SDS011;29781;49.480;8.512;2023-07-16T01:25:24;3.17;;;2.40;;
44116;SDS011;29781;49.480;8.512;2023-07-16T01:28:19;2.45;;;2.10;;
44116;SDS011;29781;49.480;8.512;2023-07-16T01:30:53;4.18;;;2.10;;
44116;SDS011;29781;49.480;8.512;2023-07-16T01:33:22;2.25;;;1.90;;
44116;SDS011;29781;49.480;8.512;2023-07-16T01:35:48;2.22;;;1.88;;
44116;SDS011;29781;49.480;8.512;2023-07-16T01:38:15;3.22;;;2.03;;
44116;SDS011;29781;49.480;8.512;2023-07-16T01:40:43;4.35;;;1.85;;
44116;SDS011;29781;49.480;8.512;2023-07-16T01:43:09;2.15;;;1.80;;
44116;SDS011;29781;49.480;8.512;2023-07-16T01:45:34;3.05;;;1.95;;
44116;SDS011;29781;49.480;8.512;2023-07-16T01:50:34;4.63;;;1.65;;
44116;SDS011;29781;49.480;8.512;2023-07-16T01:53:00;2.45;;;1.60;;
44116;SDS011;29781;49.480;8.512;2023-07-16T01:55:26;2.13;;;1.13;;
44116;SDS011;29781;49.480;8.512;2023-07-16T01:57:51;2.25;;;1.60;;
44116;SDS011;29781;49.480;8.512;2023-07-16T02:00:17;2.83;;;1.55;;
44116;SDS011;29781;49.480;8.512;2023-07-16T02:02:43;4.30;;;1.38;;
44116;SDS011;29781;49.480;8.512;2023-07-16T02:05:08;6.22;;;1.88;;
44116;SDS011;29781;49.480;8.512;2023-07-16T02:07:34;2.22;;;1.50;;
44116;SDS011;29781;49.480;8.512;2023-07-16T02:09:59;2.33;;;1.60;;
44116;SDS011;29781;49.480;8.512;2023-07-16T02:12:24;1.95;;;1.50;;
44116;SDS011;29781;49.480;8.512;2023-07-16T02:14:50;2.88;;;1.65;;
44116;SDS011;29781;49.480;8.512;2023-07-16T02:17:15;3.00;;;1.40;;
44116;SDS011;29781;49.480;8.512;2023-07-16T02:19:41;2.58;;;1.35;;
44116;SDS011;29781;49.480;8.512;2023-07-16T02:22:07;4.63;;;1.55;;
44116;SDS011;29781;49.480;8.512;2023-07-16T02:24:32;3.10;;;1.45;;
44116;SDS011;29781;49.480;8.512;2023-07-16T02:26:58;3.55;;;1.60;;
44116;SDS011;29781;49.480;8.512;2023-07-16T02:29:23;4.80;;;1.55;;
44116;SDS011;29781;49.480;8.512;2023-07-16T02:31:49;4.35;;;2.00;;
44116;SDS011;29781;49.480;8.512;2023-07-16T02:34:14;1.88;;;1.40;;
44116;SDS011;29781;49.480;8.512;2023-07-16T02:36:40;3.17;;;1.50;;
44116;SDS011;29781;49.480;8.512;2023-07-16T02:39:05;1.85;;;1.52;;
44116;SDS011;29781;49.480;8.512;2023-07-16T02:41:31;3.90;;;2.17;;
44116;SDS011;29781;49.480;8.512;2023-07-16T02:44:00;3.65;;;1.90;;
44116;SDS011;29781;49.480;8.512;2023-07-16T02:46:26;2.17;;;1.58;;
44116;SDS011;29781;49.480;8.512;2023-07-16T02:48:52;4.15;;;1.63;;
44116;SDS011;29781;49.480;8.512;2023-07-16T02:51:17;3.63;;;1.40;;
44116;SDS011;29781;49.480;8.512;2023-07-16T02:53:43;8.77;;;2.00;;
44116;SDS011;29781;49.480;8.512;2023-07-16T02:56:08;3.35;;;1.55;;
44116;SDS011;29781;49.480;8.512;2023-07-16T02:58:34;2.13;;;1.48;;
44116;SDS011;29781;49.480;8.512;2023-07-16T03:00:59;3.75;;;1.60;;
44116;SDS011;29781;49.480;8.512;2023-07-16T03:03:25;5.55;;;1.95;;
44116;SDS011;29781;49.480;8.512;2023-07-16T03:05:50;3.95;;;1.90;;
44116;SDS011;29781;49.480;8.512;2023-07-16T03:08:16;4.43;;;1.80;;
44116;SDS011;29781;49.480;8.512;2023-07-16T03:10:41;4.53;;;1.80;;
44116;SDS011;29781;49.480;8.512;2023-07-16T03:13:07;4.20;;;2.00;;
44116;SDS011;29781;49.480;8.512;2023-07-16T03:15:32;5.15;;;1.75;;
44116;SDS011;29781;49.480;8.512;2023-07-16T03:17:58;4.30;;;1.98;;
44116;SDS011;29781;49.480;8.512;2023-07-16T03:20:23;3.53;;;1.88;;
44116;SDS011;29781;49.480;8.512;2023-07-16T03:22:49;6.15;;;1.90;;
44116;SDS011;29781;49.480;8.512;2023-07-16T03:25:14;6.28;;;1.92;;
44116;SDS011;29781;49.480;8.512;2023-07-16T03:27:40;3.45;;;1.67;;
44116;SDS011;29781;49.480;8.512;2023-07-16T03:30:05;2.75;;;1.48;;
44116;SDS011;29781;49.480;8.512;2023-07-16T03:32:31;5.30;;;1.88;;
44116;SDS011;29781;49.480;8.512;2023-07-16T03:34:57;3.03;;;1.60;;
44116;SDS011;29781;49.480;8.512;2023-07-16T03:37:22;2.60;;;1.50;;
44116;SDS011;29781;49.480;8.512;2023-07-16T03:39:48;3.85;;;1.60;;
44116;SDS011;29781;49.480;8.512;2023-07-16T03:42:13;6.15;;;1.80;;
44116;SDS011;29781;49.480;8.512;2023-07-16T03:44:39;3.25;;;1.60;;
44116;SDS011;29781;49.480;8.512;2023-07-16T03:47:04;4.78;;;1.60;;
44116;SDS011;29781;49.480;8.512;2023-07-16T03:49:30;5.40;;;2.00;;
44116;SDS011;29781;49.480;8.512;2023-07-16T03:51:55;2.83;;;1.38;;
44116;SDS011;29781;49.480;8.512;2023-07-16T03:54:21;7.80;;;1.63;;
44116;SDS011;29781;49.480;8.512;2023-07-16T03:56:46;5.13;;;1.85;;
44116;SDS011;29781;49.480;8.512;2023-07-16T03:59:12;5.18;;;2.00;;
44116;SDS011;29781;49.480;8.512;2023-07-16T04:01:37;4.90;;;1.63;;
44116;SDS011;29781;49.480;8.512;2023-07-16T04:04:03;4.63;;;1.45;;
44116;SDS011;29781;49.480;8.512;2023-07-16T04:06:28;7.63;;;1.85;;
44116;SDS011;29781;49.480;8.512;2023-07-16T04:08:54;4.25;;;1.75;;
44116;SDS011;29781;49.480;8.512;2023-07-16T04:11:19;6.18;;;1.80;;
44116;SDS011;29781;49.480;8.512;2023-07-16T04:13:45;3.55;;;1.70;;
44116;SDS011;29781;49.480;8.512;2023-07-16T04:16:10;5.28;;;1.85;;
44116;SDS011;29781;49.480;8.512;2023-07-16T04:18:36;5.97;;;1.73;;
44116;SDS011;29781;49.480;8.512;2023-07-16T04:21:01;5.13;;;1.80;;
44116;SDS011;29781;49.480;8.512;2023-07-16T04:23:27;5.93;;;1.70;;
44116;SDS011;29781;49.480;8.512;2023-07-16T04:25:53;4.65;;;1.77;;
44116;SDS011;29781;49.480;8.512;2023-07-16T04:28:19;2.85;;;1.60;;
44116;SDS011;29781;49.480;8.512;2023-07-16T04:30:45;6.78;;;1.90;;
44116;SDS011;29781;49.480;8.512;2023-07-16T04:33:10;3.67;;;1.73;;
44116;SDS011;29781;49.480;8.512;2023-07-16T04:35:36;4.60;;;1.80;;
44116;SDS011;29781;49.480;8.512;2023-07-16T04:38:01;7.07;;;1.60;;
44116;SDS011;29781;49.480;8.512;2023-07-16T04:40:28;4.03;;;1.63;;
44116;SDS011;29781;49.480;8.512;2023-07-16T04:42:54;6.43;;;2.03;;
44116;SDS011;29781;49.480;8.512;2023-07-16T04:45:20;2.40;;;1.73;;
44116;SDS011;29781;49.480;8.512;2023-07-16T04:47:45;5.80;;;1.58;;
44116;SDS011;29781;49.480;8.512;2023-07-16T04:50:11;5.32;;;1.70;;
44116;SDS011;29781;49.480;8.512;2023-07-16T04:52:37;6.50;;;1.80;;
44116;SDS011;29781;49.480;8.512;2023-07-16T04:55:03;4.93;;;1.80;;
44116;SDS011;29781;49.480;8.512;2023-07-16T04:57:28;8.43;;;2.08;;
44116;SDS011;29781;49.480;8.512;2023-07-16T04:59:54;6.47;;;1.50;;
44116;SDS011;29781;49.480;8.512;2023-07-16T05:02:20;6.80;;;1.65;;
44116;SDS011;29781;49.480;8.512;2023-07-16T05:04:46;4.15;;;1.45;;
44116;SDS011;29781;49.480;8.512;2023-07-16T05:07:13;5.47;;;1.85;;
44116;SDS011;29781;49.480;8.512;2023-07-16T05:09:39;4.32;;;1.95;;
44116;SDS011;29781;49.480;8.512;2023-07-16T05:12:04;7.32;;;1.67;;
44116;SDS011;29781;49.480;8.512;2023-07-16T05:14:30;6.97;;;1.80;;
44116;SDS011;29781;49.480;8.512;2023-07-16T05:16:56;5.53;;;1.92;;
44116;SDS011;29781;49.480;8.512;2023-07-16T05:19:21;4.82;;;1.67;;
44116;SDS011;29781;49.480;8.512;2023-07-16T05:21:47;2.90;;;1.80;;
44116;SDS011;29781;49.480;8.512;2023-07-16T05:24:13;5.00;;;1.60;;
44116;SDS011;29781;49.480;8.512;2023-07-16T05:26:39;2.65;;;1.50;;
44116;SDS011;29781;49.480;8.512;2023-07-16T05:29:04;5.43;;;1.45;;
44116;SDS011;29781;49.480;8.512;2023-07-16T05:31:30;5.00;;;1.42;;
44116;SDS011;29781;49.480;8.512;2023-07-16T05:33:55;4.45;;;1.50;;
44116;SDS011;29781;49.480;8.512;2023-07-16T05:36:21;6.30;;;1.70;;
44116;SDS011;29781;49.480;8.512;2023-07-16T05:38:47;5.70;;;2.00;;
44116;SDS011;29781;49.480;8.512;2023-07-16T05:41:12;7.90;;;1.92;;
44116;SDS011;29781;49.480;8.512;2023-07-16T05:43:38;9.63;;;2.10;;
44116;SDS011;29781;49.480;8.512;2023-07-16T05:46:03;5.00;;;1.83;;
44116;SDS011;29781;49.480;8.512;2023-07-16T05:48:30;4.07;;;1.70;;
44116;SDS011;29781;49.480;8.512;2023-07-16T05:50:56;4.03;;;1.80;;
44116;SDS011;29781;49.480;8.512;2023-07-16T05:53:21;4.22;;;1.73;;
44116;SDS011;29781;49.480;8.512;2023-07-16T05:55:47;3.92;;;1.85;;
44116;SDS011;29781;49.480;8.512;2023-07-16T05:58:14;4.68;;;1.80;;
44116;SDS011;29781;49.480;8.512;2023-07-16T06:00:40;4.05;;;1.48;;
44116;SDS011;29781;49.480;8.512;2023-07-16T06:03:05;5.00;;;2.17;;
44116;SDS011;29781;49.480;8.512;2023-07-16T06:05:31;5.45;;;2.10;;
44116;SDS011;29781;49.480;8.512;2023-07-16T06:07:59;6.38;;;2.00;;
44116;SDS011;29781;49.480;8.512;2023-07-16T06:10:25;4.90;;;1.83;;
44116;SDS011;29781;49.480;8.512;2023-07-16T06:12:51;4.57;;;1.80;;
44116;SDS011;29781;49.480;8.512;2023-07-16T06:15:16;2.90;;;1.63;;
44116;SDS011;29781;49.480;8.512;2023-07-16T06:17:42;3.75;;;1.60;;
44116;SDS011;29781;49.480;8.512;2023-07-16T06:20:07;4.20;;;1.80;;
44116;SDS011;29781;49.480;8.512;2023-07-16T06:22:34;5.90;;;1.70;;
44116;SDS011;29781;49.480;8.512;2023-07-16T06:24:59;6.63;;;1.67;;
44116;SDS011;29781;49.480;8.512;2023-07-16T06:27:25;4.70;;;1.75;;
44116;SDS011;29781;49.480;8.512;2023-07-16T06:29:51;4.43;;;1.70;;
44116;SDS011;29781;49.480;8.512;2023-07-16T06:32:16;7.07;;;1.70;;
44116;SDS011;29781;49.480;8.512;2023-07-16T06:34:42;3.17;;;1.85;;
44116;SDS011;29781;49.480;8.512;2023-07-16T06:37:07;5.72;;;1.65;;
44116;SDS011;29781;49.480;8.512;2023-07-16T06:39:33;5.20;;;1.90;;
44116;SDS011;29781;49.480;8.512;2023-07-16T06:41:58;9.38;;;2.22;;
44116;SDS011;29781;49.480;8.512;2023-07-16T06:44:24;3.97;;;2.00;;
44116;SDS011;29781;49.480;8.512;2023-07-16T06:46:50;8.10;;;1.80;;
44116;SDS011;29781;49.480;8.512;2023-07-16T06:49:15;4.70;;;2.00;;
44116;SDS011;29781;49.480;8.512;2023-07-16T06:51:41;5.22;;;2.15;;
44116;SDS011;29781;49.480;8.512;2023-07-16T06:54:06;9.10;;;2.35;;
44116;SDS011;29781;49.480;8.512;2023-07-16T06:56:32;4.53;;;1.70;;
44116;SDS011;29781;49.480;8.512;2023-07-16T06:58:58;3.00;;;1.60;;
44116;SDS011;29781;49.480;8.512;2023-07-16T07:01:23;5.75;;;2.03;;
44116;SDS011;29781;49.480;8.512;2023-07-16T07:03:49;5.95;;;1.95;;
44116;SDS011;29781;49.480;8.512;2023-07-16T07:06:15;5.50;;;2.22;;
44116;SDS011;29781;49.480;8.512;2023-07-16T07:08:40;5.38;;;2.13;;
44116;SDS011;29781;49.480;8.512;2023-07-16T07:11:06;9.27;;;2.13;;
44116;SDS011;29781;49.480;8.512;2023-07-16T07:13:31;8.13;;;2.33;;
44116;SDS011;29781;49.480;8.512;2023-07-16T07:15:57;4.75;;;2.13;;
44116;SDS011;29781;49.480;8.512;2023-07-16T07:18:22;6.13;;;2.30;;
44116;SDS011;29781;49.480;8.512;2023-07-16T07:20:48;4.25;;;1.90;;
44116;SDS011;29781;49.480;8.512;2023-07-16T07:23:14;7.70;;;2.40;;
44116;SDS011;29781;49.480;8.512;2023-07-16T07:25:40;8.93;;;2.50;;
44116;SDS011;29781;49.480;8.512;2023-07-16T07:28:06;5.55;;;2.10;;
44116;SDS011;29781;49.480;8.512;2023-07-16T07:30:32;5.25;;;2.22;;
44116;SDS011;29781;49.480;8.512;2023-07-16T07:32:57;8.18;;;2.40;;
44116;SDS011;29781;49.480;8.512;2023-07-16T07:35:23;7.10;;;2.30;;
44116;SDS011;29781;49.480;8.512;2023-07-16T07:37:49;5.53;;;2.10;;
44116;SDS011;29781;49.480;8.512;2023-07-16T07:40:14;5.50;;;2.10;;
44116;SDS011;29781;49.480;8.512;2023-07-16T07:42:40;5.85;;;2.30;;
44116;SDS011;29781;49.480;8.512;2023-07-16T07:45:06;8.27;;;2.20;;
44116;SDS011;29781;49.480;8.512;2023-07-16T07:47:32;5.55;;;2.10;;
44116;SDS011;29781;49.480;8.512;2023-07-16T07:49:57;7.30;;;2.45;;
44116;SDS011;29781;49.480;8.512;2023-07-16T07:52:23;4.68;;;2.45;;
44116;SDS011;29781;49.480;8.512;2023-07-16T07:54:48;6.68;;;2.50;;
44116;SDS011;29781;49.480;8.512;2023-07-16T07:57:14;7.15;;;2.40;;
44116;SDS011;29781;49.480;8.512;2023-07-16T07:59:39;7.30;;;1.85;;
44116;SDS011;29781;49.480;8.512;2023-07-16T08:02:05;4.75;;;2.33;;
44116;SDS011;29781;49.480;8.512;2023-07-16T08:04:31;5.40;;;2.20;;
44116;SDS011;29781;49.480;8.512;2023-07-16T08:06:57;4.53;;;2.63;;
44116;SDS011;29781;49.480;8.512;2023-07-16T08:09:23;4.28;;;1.92;;
44116;SDS011;29781;49.480;8.512;2023-07-16T08:11:48;5.45;;;2.60;;
44116;SDS011;29781;49.480;8.512;2023-07-16T08:14:14;7.18;;;2.10;;
44116;SDS011;29781;49.480;8.512;2023-07-16T08:16:39;9.85;;;2.33;;
44116;SDS011;29781;49.480;8.512;2023-07-16T08:19:05;4.30;;;2.13;;
44116;SDS011;29781;49.480;8.512;2023-07-16T08:21:32;5.93;;;2.30;;
44116;SDS011;29781;49.480;8.512;2023-07-16T08:23:57;4.32;;;2.25;;
44116;SDS011;29781;49.480;8.512;2023-07-16T08:26:23;4.97;;;2.42;;
44116;SDS011;29781;49.480;8.512;2023-07-16T08:28:48;4.53;;;2.00;;
44116;SDS011;29781;49.480;8.512;2023-07-16T08:31:14;6.88;;;2.35;;
44116;SDS011;29781;49.480;8.512;2023-07-16T08:33:39;6.63;;;2.47;;
44116;SDS011;29781;49.480;8.512;2023-07-16T08:36:05;11.95;;;2.60;;
44116;SDS011;29781;49.480;8.512;2023-07-16T08:38:30;6.55;;;2.50;;
44116;SDS011;29781;49.480;8.512;2023-07-16T08:40:56;6.80;;;2.30;;
44116;SDS011;29781;49.480;8.512;2023-07-16T08:43:22;6.55;;;2.30;;
44116;SDS011;29781;49.480;8.512;2023-07-16T08:45:48;7.10;;;2.47;;
44116;SDS011;29781;49.480;8.512;2023-07-16T08:48:14;8.02;;;2.42;;
44116;SDS011;29781;49.480;8.512;2023-07-16T08:50:43;5.85;;;2.35;;
44116;SDS011;29781;49.480;8.512;2023-07-16T08:53:12;10.15;;;2.55;;
44116;SDS011;29781;49.480;8.512;2023-07-16T08:55:44;7.45;;;2.22;;
44116;SDS011;29781;49.480;8.512;2023-07-16T08:58:11;5.80;;;2.30;;
44116;SDS011;29781;49.480;8.512;2023-07-16T09:00:39;5.97;;;1.83;;
44116;SDS011;29781;49.480;8.512;2023-07-16T09:03:10;6.15;;;2.08;;
44116;SDS011;29781;49.480;8.512;2023-07-16T09:05:38;4.95;;;2.20;;
44116;SDS011;29781;49.480;8.512;2023-07-16T09:08:04;13.65;;;3.10;;
44116;SDS011;29781;49.480;8.512;2023-07-16T09:10:29;6.43;;;2.28;;
44116;SDS011;29781;49.480;8.512;2023-07-16T09:12:57;6.18;;;2.50;;
44116;SDS011;29781;49.480;8.512;2023-07-16T09:15:23;6.68;;;2.22;;
44116;SDS011;29781;49.480;8.512;2023-07-16T09:17:49;5.10;;;2.53;;
44116;SDS011;29781;49.480;8.512;2023-07-16T09:20:15;3.90;;;2.13;;
44116;SDS011;29781;49.480;8.512;2023-07-16T09:22:42;5.82;;;2.10;;
44116;SDS011;29781;49.480;8.512;2023-07-16T09:25:08;5.35;;;2.00;;
44116;SDS011;29781;49.480;8.512;2023-07-16T09:27:34;4.68;;;2.35;;
44116;SDS011;29781;49.480;8.512;2023-07-16T09:29:59;8.32;;;2.40;;
44116;SDS011;29781;49.480;8.512;2023-07-16T09:32:39;6.35;;;2.28;;
44116;SDS011;29781;49.480;8.512;2023-07-16T09:35:09;7.22;;;2.20;;
44116;SDS011;29781;49.480;8.512;2023-07-16T09:40:03;5.68;;;2.30;;
44116;SDS011;29781;49.480;8.512;2023-07-16T09:42:38;5.95;;;2.15;;
44116;SDS011;29781;49.480;8.512;2023-07-16T09:45:05;6.65;;;1.95;;
44116;SDS011;29781;49.480;8.512;2023-07-16T09:47:51;6.03;;;2.30;;
44116;SDS011;29781;49.480;8.512;2023-07-16T09:50:17;10.75;;;2.78;;
44116;SDS011;29781;49.480;8.512;2023-07-16T09:52:43;6.57;;;2.13;;
44116;SDS011;29781;49.480;8.512;2023-07-16T09:55:09;9.75;;;2.42;;
44116;SDS011;29781;49.480;8.512;2023-07-16T09:57:35;5.00;;;2.28;;
44116;SDS011;29781;49.480;8.512;2023-07-16T10:00:05;5.45;;;1.90;;
44116;SDS011;29781;49.480;8.512;2023-07-16T10:02:36;7.18;;;2.33;;
44116;SDS011;29781;49.480;8.512;2023-07-16T10:05:15;6.53;;;2.20;;
44116;SDS011;29781;49.480;8.512;2023-07-16T10:07:42;7.00;;;2.35;;
44116;SDS011;29781;49.480;8.512;2023-07-16T10:10:08;8.52;;;2.55;;
44116;SDS011;29781;49.480;8.512;2023-07-16T10:12:35;5.43;;;2.42;;
44116;SDS011;29781;49.480;8.512;2023-07-16T10:15:01;8.38;;;2.42;;
44116;SDS011;29781;49.480;8.512;2023-07-16T10:17:30;4.68;;;1.92;;
44116;SDS011;29781;49.480;8.512;2023-07-16T10:25:07;5.68;;;2.00;;
44116;SDS011;29781;49.480;8.512;2023-07-16T10:27:33;4.22;;;1.80;;
44116;SDS011;29781;49.480;8.512;2023-07-16T10:30:00;4.50;;;2.22;;
44116;SDS011;29781;49.480;8.512;2023-07-16T10:32:30;4.75;;;2.00;;
44116;SDS011;29781;49.480;8.512;2023-07-16T10:34:57;8.52;;;2.30;;
44116;SDS011;29781;49.480;8.512;2023-07-16T10:37:23;6.10;;;1.95;;
44116;SDS011;29781;49.480;8.512;2023-07-16T10:39:50;9.02;;;2.70;;
44116;SDS011;29781;49.480;8.512;2023-07-16T10:42:20;7.80;;;2.33;;
44116;SDS011;29781;49.480;8.512;2023-07-16T10:44:51;6.07;;;1.70;;
44116;SDS011;29781;49.480;8.512;2023-07-16T10:49:48;3.42;;;1.88;;
44116;SDS011;29781;49.480;8.512;2023-07-16T10:52:16;3.88;;;2.20;;
44116;SDS011;29781;49.480;8.512;2023-07-16T10:54:42;5.22;;;2.20;;
44116;SDS011;29781;49.480;8.512;2023-07-16T10:57:08;4.03;;;1.95;;
44116;SDS011;29781;49.480;8.512;2023-07-16T10:59:37;4.22;;;2.08;;
44116;SDS011;29781;49.480;8.512;2023-07-16T11:02:04;4.63;;;2.15;;
44116;SDS011;29781;49.480;8.512;2023-07-16T11:04:34;8.23;;;2.55;;
44116;SDS011;29781;49.480;8.512;2023-07-16T11:07:03;6.22;;;2.20;;
44116;SDS011;29781;49.480;8.512;2023-07-16T11:09:29;5.47;;;2.20;;
44116;SDS011;29781;49.480;8.512;2023-07-16T11:12:04;5.63;;;2.35;;
44116;SDS011;29781;49.480;8.512;2023-07-16T11:14:32;4.35;;;1.95;;
44116;SDS011;29781;49.480;8.512;2023-07-16T11:17:03;9.80;;;2.72;;
44116;SDS011;29781;49.480;8.512;2023-07-16T11:19:31;4.20;;;2.10;;
44116;SDS011;29781;49.480;8.512;2023-07-16T11:21:56;6.13;;;2.47;;
44116;SDS011;29781;49.480;8.512;2023-07-16T11:24:23;8.15;;;2.30;;
44116;SDS011;29781;49.480;8.512;2023-07-16T11:26:53;7.88;;;2.58;;
44116;SDS011;29781;49.480;8.512;2023-07-16T11:29:21;6.75;;;2.50;;
44116;SDS011;29781;49.480;8.512;2023-07-16T11:31:51;5.47;;;2.50;;
44116;SDS011;29781;49.480;8.512;2023-07-16T11:34:19;4.63;;;2.27;;
44116;SDS011;29781;49.480;8.512;2023-07-16T11:36:46;5.65;;;2.38;;
44116;SDS011;29781;49.480;8.512;2023-07-16T11:39:12;6.68;;;2.38;;
44116;SDS011;29781;49.480;8.512;2023-07-16T11:41:38;4.45;;;2.35;;
44116;SDS011;29781;49.480;8.512;2023-07-16T11:44:03;4.00;;;2.08;;
44116;SDS011;29781;49.480;8.512;2023-07-16T11:46:32;5.85;;;2.20;;
44116;SDS011;29781;49.480;8.512;2023-07-16T11:48:59;5.68;;;2.17;;
44116;SDS011;29781;49.480;8.512;2023-07-16T11:51:25;3.78;;;2.15;;
44116;SDS011;29781;49.480;8.512;2023-07-16T11:53:51;6.25;;;2.10;;
44116;SDS011;29781;49.480;8.512;2023-07-16T11:56:16;4.93;;;2.13;;
44116;SDS011;29781;49.480;8.512;2023-07-16T11:58:42;5.57;;;1.98;;
44116;SDS011;29781;49.480;8.512;2023-07-16T12:01:07;3.05;;;2.10;;
44116;SDS011;29781;49.480;8.512;2023-07-16T12:03:34;3.10;;;2.15;;
44116;SDS011;29781;49.480;8.512;2023-07-16T12:05:59;4.95;;;2.50;;
44116;SDS011;29781;49.480;8.512;2023-07-16T12:08:25;4.85;;;2.13;;
44116;SDS011;29781;49.480;8.512;2023-07-16T12:10:50;5.07;;;2.30;;
44116;SDS011;29781;49.480;8.512;2023-07-16T12:13:16;7.57;;;2.22;;
44116;SDS011;29781;49.480;8.512;2023-07-16T12:15:42;4.38;;;2.20;;
44116;SDS011;29781;49.480;8.512;2023-07-16T12:18:07;8.05;;;2.30;;
44116;SDS011;29781;49.480;8.512;2023-07-16T12:20:33;6.38;;;2.67;;
44116;SDS011;29781;49.480;8.512;2023-07-16T12:23:01;5.65;;;2.58;;
44116;SDS011;29781;49.480;8.512;2023-07-16T12:25:27;11.45;;;2.67;;
44116;SDS011;29781;49.480;8.512;2023-07-16T12:27:53;7.38;;;2.78;;
44116;SDS011;29781;49.480;8.512;2023-07-16T12:30:19;5.30;;;2.50;;
44116;SDS011;29781;49.480;8.512;2023-07-16T12:32:44;7.72;;;2.35;;
44116;SDS011;29781;49.480;8.512;2023-07-16T12:35:10;3.20;;;2.42;;
44116;SDS011;29781;49.480;8.512;2023-07-16T12:37:35;6.38;;;2.38;;
44116;SDS011;29781;49.480;8.512;2023-07-16T12:40:01;6.40;;;2.15;;
44116;SDS011;29781;49.480;8.512;2023-07-16T12:42:27;5.00;;;2.47;;
44116;SDS011;29781;49.480;8.512;2023-07-16T12:44:52;4.13;;;2.60;;
44116;SDS011;29781;49.480;8.512;2023-07-16T12:47:18;6.15;;;2.60;;
44116;SDS011;29781;49.480;8.512;2023-07-16T12:49:43;6.10;;;2.47;;
44116;SDS011;29781;49.480;8.512;2023-07-16T12:52:09;3.35;;;2.13;;
44116;SDS011;29781;49.480;8.512;2023-07-16T12:54:35;6.28;;;2.42;;
44116;SDS011;29781;49.480;8.512;2023-07-16T12:57:00;4.30;;;2.50;;
44116;SDS011;29781;49.480;8.512;2023-07-16T12:59:26;5.72;;;2.28;;
44116;SDS011;29781;49.480;8.512;2023-07-16T13:01:51;6.22;;;2.30;;
44116;SDS011;29781;49.480;8.512;2023-07-16T13:04:17;4.10;;;2.30;;
44116;SDS011;29781;49.480;8.512;2023-07-16T13:06:42;5.70;;;2.10;;
44116;SDS011;29781;49.480;8.512;2023-07-16T13:09:12;5.90;;;2.17;;
44116;SDS011;29781;49.480;8.512;2023-07-16T13:11:38;5.97;;;2.50;;
44116;SDS011;29781;49.480;8.512;2023-07-16T13:14:03;5.30;;;2.67;;
44116;SDS011;29781;49.480;8.512;2023-07-16T13:16:29;4.18;;;2.58;;
44116;SDS011;29781;49.480;8.512;2023-07-16T13:18:54;6.30;;;2.40;;
44116;SDS011;29781;49.480;8.512;2023-07-16T13:21:20;3.33;;;2.10;;
44116;SDS011;29781;49.480;8.512;2023-07-16T13:23:45;5.15;;;2.13;;
44116;SDS011;29781;49.480;8.512;2023-07-16T13:26:11;6.10;;;2.60;;
44116;SDS011;29781;49.480;8.512;2023-07-16T13:28:36;6.35;;;2.60;;
44116;SDS011;29781;49.480;8.512;2023-07-16T13:31:02;4.45;;;2.63;;
44116;SDS011;29781;49.480;8.512;2023-07-16T13:33:27;4.50;;;2.45;;
44116;SDS011;29781;49.480;8.512;2023-07-16T13:35:53;4.35;;;2.58;;
44116;SDS011;29781;49.480;8.512;2023-07-16T13:38:19;3.88;;;2.38;;
44116;SDS011;29781;49.480;8.512;2023-07-16T13:40:44;4.70;;;2.25;;
44116;SDS011;29781;49.480;8.512;2023-07-16T13:43:10;6.07;;;2.38;;
44116;SDS011;29781;49.480;8.512;2023-07-16T13:45:35;4.55;;;2.42;;
44116;SDS011;29781;49.480;8.512;2023-07-16T13:48:01;4.30;;;2.20;;
44116;SDS011;29781;49.480;8.512;2023-07-16T13:50:27;4.45;;;2.65;;
44116;SDS011;29781;49.480;8.512;2023-07-16T13:52:52;5.70;;;2.42;;
44116;SDS011;29781;49.480;8.512;2023-07-16T13:55:18;4.90;;;2.30;;
44116;SDS011;29781;49.480;8.512;2023-07-16T13:57:43;7.38;;;2.95;;
44116;SDS011;29781;49.480;8.512;2023-07-16T14:00:09;10.75;;;2.55;;
44116;SDS011;29781;49.480;8.512;2023-07-16T14:02:35;3.72;;;2.55;;
44116;SDS011;29781;49.480;8.512;2023-07-16T14:05:01;5.38;;;2.47;;
44116;SDS011;29781;49.480;8.512;2023-07-16T14:07:27;6.00;;;2.58;;
44116;SDS011;29781;49.480;8.512;2023-07-16T14:09:53;3.65;;;2.28;;
44116;SDS011;29781;49.480;8.512;2023-07-16T14:12:19;4.05;;;2.50;;
44116;SDS011;29781;49.480;8.512;2023-07-16T14:14:45;6.43;;;2.80;;
44116;SDS011;29781;49.480;8.512;2023-07-16T14:17:10;5.85;;;2.83;;
44116;SDS011;29781;49.480;8.512;2023-07-16T14:19:36;5.70;;;2.60;;
44116;SDS011;29781;49.480;8.512;2023-07-16T14:22:01;6.82;;;2.83;;
44116;SDS011;29781;49.480;8.512;2023-07-16T14:24:27;5.45;;;2.90;;
44116;SDS011;29781;49.480;8.512;2023-07-16T14:26:53;3.88;;;2.30;;
44116;SDS011;29781;49.480;8.512;2023-07-16T14:29:18;4.38;;;2.65;;
44116;SDS011;29781;49.480;8.512;2023-07-16T14:31:44;5.28;;;2.67;;
44116;SDS011;29781;49.480;8.512;2023-07-16T14:34:09;7.70;;;3.25;;
44116;SDS011;29781;49.480;8.512;2023-07-16T14:36:35;4.38;;;2.70;;
44116;SDS011;29781;49.480;8.512;2023-07-16T14:39:00;4.07;;;2.70;;
44116;SDS011;29781;49.480;8.512;2023-07-16T14:41:26;6.72;;;3.00;;
44116;SDS011;29781;49.480;8.512;2023-07-16T14:43:51;7.35;;;2.72;;
44116;SDS011;29781;49.480;8.512;2023-07-16T14:46:17;5.53;;;2.67;;
44116;SDS011;29781;49.480;8.512;2023-07-16T14:48:43;5.45;;;2.42;;
44116;SDS011;29781;49.480;8.512;2023-07-16T14:51:09;4.35;;;2.58;;
44116;SDS011;29781;49.480;8.512;2023-07-16T14:53:38;4.47;;;2.50;;
44116;SDS011;29781;49.480;8.512;2023-07-16T14:56:04;6.05;;;2.67;;
44116;SDS011;29781;49.480;8.512;2023-07-16T14:58:32;4.90;;;2.40;;